Flight Track Log - Related Links

Times and Time Zones

All times are in EDT time to prevent confusion due to time zone crossing. See the DAL6196 flight status page for this flight to view local times or setup timezone preferences in your user account.

Time Position Orientation Groundspeed Altitude Reporting Facility
EDT Latitude Longitude Course Direction KTS MPH feet Rate Location/Type
Mon 01:17:29 PM 35.8644 -78.8164 266° West 169 194 1,400  Level Washington Center
Mon 01:18:55 PM 35.8603 -78.8931 266° West 214 246 4,600 2,198 Climbing Washington Center
Mon 01:19:40 PM 35.9117 -78.9208 336° Northwest 276 318 6,200 2,377 Climbing Washington Center
Mon 01:20:41 PM 35.9842 -78.9342 352° North 273 314 8,800 2,557 Climbing Washington Center
Mon 01:21:42 PM 36.0425 -78.8622 45° Northeast 257 296 11,400 2,269 Climbing Washington Center
Mon 01:22:40 PM 36.0931 -78.7639 58° Northeast 274 315 13,300 1,513 Climbing Washington Center
Mon 01:23:41 PM 36.1439 -78.6581 59° Northeast 334 384 14,400 984 Climbing Washington Center
Mon 01:24:42 PM 36.1986 -78.5572 56° Northeast 368 423 15,300 992 Climbing Washington Center
Mon 01:25:42 PM 36.2708 -78.4233 56° Northeast 409 471 16,400 1,220 Climbing Washington Center
Mon 01:26:40 PM 36.3542 -78.3411 38° Northeast 417 480 17,700 1,462 Climbing Washington Center
Mon 01:27:41 PM 36.4606 -78.2417 37° Northeast 422 486 19,300 1,736 Climbing Washington Center
Mon 01:28:41 PM 36.5542 -78.1569 36° Northeast 422 486 21,200 1,462 Climbing Washington Center
Mon 01:29:40 PM 36.6353 -78.0742 39° Northeast 417 480 22,200 1,000 Climbing Washington Center
Mon 01:30:41 PM 36.7289 -77.9892 36° Northeast 412 474 23,200 934 Climbing Washington Center
Mon 01:31:42 PM 36.8247 -77.8883 40° Northeast 430 495 24,100 958 Climbing Washington Center
Mon 01:32:40 PM 36.9125 -77.7608 49° Northeast 450 518 25,100 1,017 Climbing Washington Center
Mon 01:33:40 PM 36.9983 -77.6281 51° Northeast 475 547 26,100 992 Climbing Washington Center
Mon 01:34:41 PM 37.0839 -77.4950 51° Northeast 488 562 27,100 1,008 Climbing Washington Center
Mon 01:35:39 PM 37.1819 -77.3722 45° Northeast 493 567 28,100 1,008 Climbing Washington Center
Mon 01:36:40 PM 37.2981 -77.2733 34° Northeast 498 573 29,100 984 Climbing Washington Center
Mon 01:37:41 PM 37.4142 -77.1739 34° Northeast 498 573 30,100 1,033 Climbing Washington Center
Mon 01:38:42 PM 37.5342 -77.0689 35° Northeast 511 588 31,200 1,059 Climbing Washington Center
Mon 01:39:40 PM 37.6503 -76.9689 34° Northeast 516 594 32,200 1,017 Climbing Washington Center
Mon 01:40:40 PM 37.7619 -76.8683 35° Northeast 510 587 33,200 992 Climbing Washington Center
Mon 01:41:41 PM 37.8775 -76.7650 35° Northeast 505 581 34,200 893 Climbing Washington Center
Mon 01:42:41 PM 37.9911 -76.6642 35° Northeast 500 575 35,000 397 Climbing Washington Center
Mon 01:43:42 PM 38.1089 -76.5603 35° Northeast 500 575 35,000  Level Washington Center
Mon 01:44:42 PM 38.2222 -76.4561 36° Northeast 500 575 35,000  Level Washington Center
Mon 01:45:40 PM 38.3439 -76.3489 35° Northeast 495 570 35,000  Level Washington Center
Mon 01:46:41 PM 38.4592 -76.2414 36° Northeast 501 577 35,000 -496 Level Washington Center
Mon 01:47:41 PM 38.5597 -76.1386 39° Northeast 501 577 34,000 -1,686 Descending Washington Center
Mon 01:48:42 PM 38.6789 -76.0411 33° Northeast 506 582 31,600 -2,281 Descending Washington Center
Mon 01:49:42 PM 38.7919 -75.9325 37° Northeast 506 582 29,400 -2,085 Descending Washington Center
Mon 01:50:40 PM 38.9069 -75.8292 35° Northeast 506 582 27,500 -1,563 Descending Washington Center
Mon 01:51:41 PM 39.0133 -75.7253 37° Northeast 495 570 26,300 -1,140 Descending Washington Center
Mon 01:52:41 PM 39.1175 -75.6292 36° Northeast 481 554 25,200 -1,041 Descending Washington Center
Mon 01:53:42 PM 39.2217 -75.5300 36° Northeast 469 540 24,200 -1,160 Descending Washington Center
Mon 01:54:40 PM 39.3258 -75.4358 35° Northeast 458 527 22,900 -1,400 Descending Washington Center
Mon 01:55:42 PM 39.4300 -75.3417 35° Northeast 453 521 21,400 -1,475 Descending Washington Center
Mon 01:56:42 PM 39.5275 -75.2553 34° Northeast 443 510 19,900 -1,678 Descending Washington Center
Mon 01:57:40 PM 39.6189 -75.1686 36° Northeast 432 497 18,100 -1,780 Descending Washington Center
Mon 01:58:40 PM 39.7186 -75.0789 35° Northeast 402 463 16,400 -1,785 Descending Washington Center
Mon 01:59:41 PM 39.8058 -75.0056 33° Northeast 382 440 14,500 -1,800 Descending Washington Center
Mon 02:00:40 PM 39.8847 -74.9372 34° Northeast 371 427 12,800 -1,806 Descending Washington Center
Mon 02:01:24 PM 39.9500 -74.8667 40° Northeast 364 419 11,400 -1,558 Descending New York TRACON
Mon 02:02:24 PM 40.0167 -74.7667 49° Northeast 357 411 10,100 -700 Descending New York TRACON
Mon 02:03:24 PM 40.0833 -74.6667 49° Northeast 355 409 10,000 -50 Descending New York TRACON
Mon 02:04:24 PM 40.1500 -74.5833 44° Northeast 341 392 10,000 -100 Level New York TRACON
Mon 02:05:24 PM 40.2000 -74.5000 52° Northeast 289 333 9,800 -842 Descending New York TRACON
Mon 02:06:18 PM 40.2500 -74.4333 45° Northeast 305 351 8,400 -1,421 Descending New York TRACON
Mon 02:07:18 PM 40.3167 -74.3500 44° Northeast 303 349 7,100 -700 Descending New York TRACON
Mon 02:08:18 PM 40.3833 -74.2833 37° Northeast 295 339 7,000 -48 Descending New York TRACON
Mon 02:09:24 PM 40.4333 -74.2000 52° Northeast 294 338 7,000 -667 Level New York TRACON
Mon 02:10:24 PM 40.5000 -74.1167 44° Northeast 296 341 5,600 -1,200 Descending New York TRACON
Mon 02:11:24 PM 40.5667 -74.0667 30° Northeast 286 329 4,600 -800 Descending New York TRACON
Mon 02:12:24 PM 40.6500 -74.0667 360° North 277 319 4,000 -316 Descending New York TRACON
Mon 02:13:18 PM 40.7000 -74.0500 14° North 244 281 4,000  Level New York TRACON
Mon 02:14:18 PM 40.7667 -74.0000 30° Northeast 255 293 4,000  Level New York TRACON
Mon 02:15:18 PM 40.8167 -73.9833 14° North 215 247 4,000  Level New York TRACON
Mon 02:16:18 PM 40.8833 -73.9500 21° North 206 237 4,000  Level New York TRACON
Mon 02:17:18 PM 40.9333 -73.9167 27° Northeast 210 242 4,000 -100 Level New York TRACON
Mon 02:18:18 PM 40.9667 -73.8500 56° Northeast 209 241 3,800 -500 Descending New York TRACON
Mon 02:19:18 PM 40.9833 -73.8000 66° East 186 214 3,000 -400 Descending New York TRACON
Mon 02:20:18 PM 40.9667 -73.7500 114° Southeast 180 207 3,000  Level New York TRACON

Login

Don't have an account? Register now (free) for customized features, flight alerts, and more!